createdAt,value
2023-12-23T00:01:44.456Z,99299.97
2023-12-23T00:04:12.142Z,99299.13
2023-12-23T00:06:40.701Z,99306.09
2023-12-23T00:09:08.337Z,99307.34
2023-12-23T00:11:36.243Z,99316.88
2023-12-23T00:14:03.991Z,99321.59
2023-12-23T00:16:33.046Z,99333.94
2023-12-23T00:19:00.999Z,99336.97
2023-12-23T00:21:29.250Z,99346.00
2023-12-23T00:23:56.961Z,99353.34
2023-12-23T00:26:24.654Z,99363.31
2023-12-23T00:28:52.314Z,99369.22
2023-12-23T00:31:26.691Z,99367.63
2023-12-23T00:33:58.235Z,99374.34
2023-12-23T00:36:28.299Z,99379.69
2023-12-23T00:38:56.016Z,99383.78
2023-12-23T00:41:31.699Z,99378.59
2023-12-23T00:43:59.378Z,99388.44
2023-12-23T00:46:35.301Z,99390.72
2023-12-23T00:49:04.459Z,99399.34
2023-12-23T00:51:33.905Z,99392.97
2023-12-23T00:54:05.373Z,99387.09
2023-12-23T00:56:33.075Z,99390.28
2023-12-23T00:59:03.794Z,99409.13
2023-12-23T01:01:33.902Z,99401.13
2023-12-23T01:04:06.244Z,99395.97
2023-12-23T01:06:38.307Z,99412.22
2023-12-23T01:09:16.669Z,99425.13
2023-12-23T01:11:48.821Z,99434.78
2023-12-23T01:14:16.901Z,99436.56
2023-12-23T01:16:47.236Z,99427.59
2023-12-23T01:19:16.412Z,99436.50
2023-12-23T01:21:44.174Z,99435.31
2023-12-23T01:24:11.860Z,99442.13
2023-12-23T01:26:39.543Z,99436.97
2023-12-23T01:29:07.162Z,99444.31
2023-12-23T01:31:34.842Z,99445.81
2023-12-23T01:34:02.613Z,99444.78
2023-12-23T01:36:31.552Z,99441.47
2023-12-23T01:39:00.227Z,99442.88
2023-12-23T01:41:27.917Z,99443.78
2023-12-23T01:43:55.605Z,99441.56
2023-12-23T01:46:23.501Z,99437.16
2023-12-23T01:48:51.487Z,99457.94
2023-12-23T01:51:19.338Z,99463.72
2023-12-23T01:53:52.547Z,99457.94
2023-12-23T01:56:20.428Z,99455.28
2023-12-23T01:58:48.812Z,99461.25
2023-12-23T02:01:16.826Z,99455.47
2023-12-23T02:03:45.088Z,99467.41
2023-12-23T02:06:16.175Z,99477.81
2023-12-23T02:08:44.055Z,99473.66
2023-12-23T02:11:37.931Z,99473.28
2023-12-23T02:14:12.088Z,99474.38
2023-12-23T02:16:40.008Z,99475.75
2023-12-23T02:19:07.644Z,99477.75
2023-12-23T02:21:36.781Z,99477.13
2023-12-23T02:24:16.132Z,99480.84
2023-12-23T02:26:51.362Z,99468.28
2023-12-23T02:29:22.796Z,99469.47
2023-12-23T02:31:52.404Z,99469.84
2023-12-23T02:34:20.438Z,99460.81
2023-12-23T02:36:49.507Z,99450.28
2023-12-23T02:39:17.253Z,99455.56
2023-12-23T02:41:45.137Z,99458.09
2023-12-23T02:44:15.259Z,99460.25
2023-12-23T02:46:43.013Z,99453.13
2023-12-23T02:49:10.753Z,99453.91
2023-12-23T02:51:38.424Z,99456.66
2023-12-23T02:54:07.547Z,99456.66
2023-12-23T02:56:35.231Z,99445.50
2023-12-23T02:59:02.934Z,99443.22
2023-12-23T03:01:31.568Z,99449.38
2023-12-23T03:03:59.346Z,99448.81
2023-12-23T03:06:27.307Z,99430.50
2023-12-23T03:08:55.273Z,99419.44
2023-12-23T03:11:24.390Z,99405.28
2023-12-23T03:13:53.202Z,99407.28
2023-12-23T03:16:21.171Z,99411.00
2023-12-23T03:18:49.048Z,99393.31
2023-12-23T03:21:16.944Z,99392.91
2023-12-23T03:23:44.678Z,99383.09
2023-12-23T03:26:12.501Z,99380.38
2023-12-23T03:28:41.628Z,99386.13
2023-12-23T03:31:10.459Z,99385.72
2023-12-23T03:33:38.280Z,99395.03
2023-12-23T03:36:06.501Z,99399.47
2023-12-23T03:38:34.268Z,99400.72
2023-12-23T03:41:02.051Z,99376.19
2023-12-23T03:43:29.801Z,99385.25
2023-12-23T03:45:58.883Z,99389.34
2023-12-23T03:48:28.073Z,99392.88
2023-12-23T03:50:55.780Z,99374.97
2023-12-23T03:53:23.810Z,99365.53
2023-12-23T03:55:51.716Z,99356.06
2023-12-23T03:58:19.710Z,99360.03
2023-12-23T04:00:48.423Z,99358.22
2023-12-23T04:03:17.650Z,99362.91
2023-12-23T04:05:45.427Z,99361.41
2023-12-23T04:08:13.421Z,99363.50
2023-12-23T04:10:41.190Z,99355.09
2023-12-23T04:13:09.410Z,99346.66
2023-12-23T04:15:37.183Z,99352.97
2023-12-23T04:18:05.440Z,99342.25
2023-12-23T04:20:34.570Z,99339.78
2023-12-23T04:23:02.267Z,99345.31
2023-12-23T04:25:30.408Z,99345.81
2023-12-23T04:27:58.079Z,99333.25
2023-12-23T04:30:26.045Z,99324.44
2023-12-23T04:32:54.010Z,99333.66
2023-12-23T04:35:22.366Z,99316.63
2023-12-23T04:37:51.457Z,99315.84
2023-12-23T04:40:19.287Z,99318.94
2023-12-23T04:42:47.148Z,99307.59
2023-12-23T04:45:15.053Z,99300.19
2023-12-23T04:47:42.799Z,99311.75
2023-12-23T04:50:10.840Z,99309.31
2023-12-23T04:52:38.560Z,99309.69
2023-12-23T04:55:10.808Z,99309.56
2023-12-23T04:57:39.000Z,99309.41
2023-12-23T05:00:09.778Z,99292.75
2023-12-23T05:02:37.465Z,99284.13
2023-12-23T05:05:06.023Z,99286.78
2023-12-23T05:07:34.755Z,99284.31
2023-12-23T05:10:02.552Z,99281.88
2023-12-23T05:12:31.737Z,99277.13
2023-12-23T05:14:59.566Z,99264.81
2023-12-23T05:17:27.431Z,99271.19
2023-12-23T05:19:56.491Z,99274.09
2023-12-23T05:22:24.224Z,99272.03
2023-12-23T05:24:51.885Z,99259.50
2023-12-23T05:27:19.675Z,99250.47
2023-12-23T05:29:48.783Z,99245.75
2023-12-23T05:32:16.534Z,99249.63
2023-12-23T05:34:44.302Z,99241.00
2023-12-23T05:37:12.017Z,99245.13
2023-12-23T05:39:40.273Z,99256.44
2023-12-23T05:42:07.984Z,99243.28
2023-12-23T05:44:35.652Z,99246.56
2023-12-23T05:47:05.056Z,99241.03
2023-12-23T05:49:32.834Z,99249.22
2023-12-23T05:52:00.479Z,99240.59
2023-12-23T05:54:28.192Z,99244.72
2023-12-23T05:56:55.889Z,99252.72
2023-12-23T05:59:23.632Z,99243.50
2023-12-23T06:01:51.289Z,99248.19
2023-12-23T06:04:20.527Z,99244.91
2023-12-23T06:06:48.158Z,99241.81
2023-12-23T06:09:15.858Z,99243.22
2023-12-23T06:11:43.628Z,99241.59
2023-12-23T06:14:11.941Z,99226.78
2023-12-23T06:16:40.982Z,99239.94
2023-12-23T06:19:08.762Z,99230.69
2023-12-23T06:21:38.712Z,99231.13
2023-12-23T06:24:07.201Z,99232.97
2023-12-23T06:26:34.890Z,99230.47
2023-12-23T06:29:02.867Z,99229.25
2023-12-23T06:31:30.522Z,99234.78
2023-12-23T06:34:04.371Z,99229.25
2023-12-23T06:36:32.569Z,99218.56
2023-12-23T06:39:02.044Z,99214.81
2023-12-23T06:41:29.749Z,99219.59
2023-12-23T06:43:57.447Z,99217.75
2023-12-23T06:46:25.334Z,99227.63
2023-12-23T06:48:54.184Z,99220.22
2023-12-23T06:51:21.935Z,99225.16
2023-12-23T06:53:49.949Z,99223.09
2023-12-23T06:56:19.793Z,99220.84
2023-12-23T06:58:47.564Z,99211.19
2023-12-23T07:01:15.272Z,99214.69
2023-12-23T07:03:43.818Z,99221.06
2023-12-23T07:06:13.530Z,99223.31
2023-12-23T07:08:41.512Z,99233.41
2023-12-23T07:11:11.343Z,99227.25
2023-12-23T07:13:40.637Z,99230.53
2023-12-23T07:16:11.041Z,99225.00
2023-12-23T07:18:39.244Z,99222.72
2023-12-23T07:21:07.033Z,99227.66
2023-12-23T07:23:34.737Z,99229.72
2023-12-23T07:26:03.662Z,99218.59
2023-12-23T07:28:31.982Z,99238.56
2023-12-23T07:31:01.152Z,99234.84
2023-12-23T07:33:28.891Z,99235.25
2023-12-23T07:35:56.724Z,99236.28
2023-12-23T07:38:27.119Z,99241.63
2023-12-23T07:40:55.575Z,99240.81
2023-12-23T07:43:23.593Z,99239.16
2023-12-23T07:45:51.286Z,99240.81
2023-12-23T07:48:20.434Z,99250.28
2023-12-23T07:50:48.352Z,99255.41
2023-12-23T07:53:16.204Z,99244.72
2023-12-23T07:55:45.116Z,99239.78
2023-12-23T07:58:13.006Z,99249.88
2023-12-23T08:00:40.645Z,99245.34
2023-12-23T08:03:08.469Z,99242.88
2023-12-23T08:05:40.102Z,99240.84
2023-12-23T08:08:11.051Z,99240.00
2023-12-23T08:10:40.803Z,99235.28
2023-12-23T08:13:08.566Z,99234.66
2023-12-23T08:15:36.432Z,99227.03
2023-12-23T08:18:04.607Z,99234.22
2023-12-23T08:20:39.882Z,99228.06
2023-12-23T08:23:11.194Z,99218.41
2023-12-23T08:25:39.129Z,99222.69
2023-12-23T08:28:08.376Z,99209.97
2023-12-23T08:30:36.126Z,99217.97
2023-12-23T08:33:04.635Z,99218.38
2023-12-23T08:35:33.072Z,99216.75
2023-12-23T08:38:00.904Z,99233.63
2023-12-23T08:40:31.494Z,99239.97
2023-12-23T08:42:59.330Z,99240.84
2023-12-23T08:45:27.341Z,99229.91
2023-12-23T08:47:55.246Z,99233.81
2023-12-23T08:50:23.785Z,99231.78
2023-12-23T08:52:51.726Z,99236.69
2023-12-23T08:55:19.681Z,99246.78
2023-12-23T08:57:49.049Z,99243.28
2023-12-23T09:00:17.542Z,99236.28
2023-12-23T09:02:45.279Z,99241.63
2023-12-23T09:05:13.706Z,99254.78
2023-12-23T09:07:41.711Z,99237.31
2023-12-23T09:10:10.341Z,99250.06
2023-12-23T09:12:40.186Z,99252.34
2023-12-23T09:15:10.213Z,99260.16
2023-12-23T09:17:37.974Z,99263.03
2023-12-23T09:20:06.844Z,99256.84
2023-12-23T09:22:34.678Z,99258.09
2023-12-23T09:25:02.405Z,99245.75
2023-12-23T09:27:32.391Z,99257.69
2023-12-23T09:30:01.074Z,99266.31
2023-12-23T09:32:30.823Z,99269.63
2023-12-23T09:35:02.258Z,99260.56
2023-12-23T09:37:31.967Z,99259.34
2023-12-23T09:40:00.385Z,99259.34
2023-12-23T09:42:29.640Z,99265.28
2023-12-23T09:44:57.521Z,99255.00
2023-12-23T09:47:26.197Z,99281.75
2023-12-23T09:49:55.823Z,99274.34
2023-12-23T09:52:26.077Z,99268.16
2023-12-23T09:54:55.769Z,99274.34
2023-12-23T09:57:23.926Z,99288.09
2023-12-23T09:59:55.759Z,99306.78
2023-12-23T10:02:23.738Z,99300.19
2023-12-23T10:04:51.962Z,99302.47
2023-12-23T10:07:21.167Z,99288.94
2023-12-23T10:09:51.010Z,99300.84
2023-12-23T10:12:20.306Z,99294.66
2023-12-23T10:14:49.883Z,99293.06
2023-12-23T10:17:20.920Z,99270.84
2023-12-23T10:19:49.773Z,99283.19
2023-12-23T10:22:19.728Z,99282.16
2023-12-23T10:24:48.816Z,99281.56
2023-12-23T10:27:20.128Z,99274.56
2023-12-23T10:29:53.942Z,99265.50
2023-12-23T10:32:26.287Z,99244.91
2023-12-23T10:35:01.000Z,99249.66
2023-12-23T10:37:33.438Z,99253.56
2023-12-23T10:40:23.774Z,99254.19
2023-12-23T10:42:55.696Z,99258.28
2023-12-23T10:45:26.635Z,99255.22
2023-12-23T10:47:55.383Z,99268.56
2023-12-23T10:50:25.611Z,99268.56
2023-12-23T10:52:56.317Z,99263.81
2023-12-23T10:55:40.154Z,99264.03
2023-12-23T10:58:10.463Z,99275.13
2023-12-23T11:00:39.046Z,99272.28
2023-12-23T11:03:12.482Z,99276.19
2023-12-23T11:05:44.094Z,99281.31
2023-12-23T11:08:18.220Z,99278.03
2023-12-23T11:11:06.409Z,99285.44
2023-12-23T11:13:35.202Z,99280.50
2023-12-23T11:16:03.564Z,99268.56
2023-12-23T11:18:31.965Z,99266.50
2023-12-23T11:21:00.063Z,99284.63
2023-12-23T11:23:37.430Z,99292.22
2023-12-23T11:26:44.437Z,99279.84
2023-12-23T11:29:16.032Z,99288.53
2023-12-23T11:31:43.208Z,99279.88
2023-12-23T11:34:16.193Z,99294.06
2023-12-23T11:36:45.970Z,99294.69
2023-12-23T11:39:26.485Z,99294.06
2023-12-23T11:41:57.660Z,99288.94
2023-12-23T11:44:26.444Z,99293.06
2023-12-23T11:46:55.912Z,99290.56
2023-12-23T11:49:24.879Z,99275.72
2023-12-23T11:51:53.392Z,99276.97
2023-12-23T11:54:22.332Z,99270.19
2023-12-23T11:56:53.112Z,99273.47
2023-12-23T11:59:33.126Z,99283.13
2023-12-23T12:02:03.044Z,99281.50
2023-12-23T12:04:31.920Z,99267.69
2023-12-23T12:09:47.387Z,99265.38
2023-12-23T12:12:15.760Z,99270.56
2023-12-23T12:14:45.717Z,99271.38
2023-12-23T12:17:13.571Z,99263.38
2023-12-23T12:19:43.503Z,99248.94
2023-12-23T12:22:11.760Z,99260.47
2023-12-23T12:24:40.298Z,99251.84
2023-12-23T12:27:08.060Z,99247.06
2023-12-23T12:29:36.070Z,99261.06
2023-12-23T12:32:06.437Z,99250.78
2023-12-23T12:34:34.116Z,99243.09
2023-12-23T12:37:05.407Z,99240.59
2023-12-23T12:39:33.407Z,99241.59
2023-12-23T12:42:07.349Z,99229.44
2023-12-23T12:44:35.330Z,99236.03
2023-12-23T12:47:05.431Z,99238.09
2023-12-23T12:49:33.370Z,99248.56
2023-12-23T12:52:05.328Z,99247.72
2023-12-23T12:54:33.481Z,99248.38
2023-12-23T12:57:01.686Z,99241.16
2023-12-23T13:03:13.405Z,99257.84
2023-12-23T13:05:44.730Z,99266.72
2023-12-23T13:08:12.565Z,99283.00
2023-12-23T13:10:48.274Z,99281.97
2023-12-23T13:13:18.291Z,99302.16
2023-12-23T13:15:46.610Z,99289.16
2023-12-23T13:18:15.913Z,99304.00
2023-12-23T13:20:43.999Z,99301.75
2023-12-23T13:23:12.746Z,99304.22
2023-12-23T13:25:44.911Z,99313.94
2023-12-23T13:28:17.662Z,99322.16
2023-12-23T13:30:46.436Z,99316.56
2023-12-23T13:33:15.570Z,99322.59
2023-12-23T13:35:43.534Z,99309.78
2023-12-23T13:38:11.282Z,99318.66
2023-12-23T13:40:41.977Z,99321.31
2023-12-23T13:43:09.646Z,99329.97
2023-12-23T13:45:37.350Z,99337.00
2023-12-23T13:48:05.464Z,99341.53
2023-12-23T13:50:37.354Z,99341.94
2023-12-23T13:53:08.644Z,99349.19
2023-12-23T13:55:36.997Z,99346.47
2023-12-23T13:58:12.057Z,99353.72
2023-12-23T14:00:39.848Z,99359.06
2023-12-23T14:03:07.646Z,99376.63
2023-12-23T14:05:39.001Z,99378.88
2023-12-23T14:08:08.836Z,99369.97
2023-12-23T14:10:36.490Z,99384.41
2023-12-23T14:13:04.221Z,99382.53
2023-12-23T14:15:31.905Z,99390.19
2023-12-23T14:17:59.727Z,99384.44
2023-12-23T14:20:27.586Z,99395.16
2023-12-23T14:22:56.703Z,99395.94
2023-12-23T14:25:24.756Z,99386.09
2023-12-23T14:27:54.009Z,99376.63
2023-12-23T14:30:26.310Z,99389.38
2023-12-23T14:32:54.586Z,99399.88
2023-12-23T14:35:33.322Z,99395.13
2023-12-23T14:38:02.510Z,99384.63
2023-12-23T14:40:33.063Z,99395.94
2023-12-23T14:43:00.977Z,99392.25
2023-12-23T14:45:29.384Z,99405.44
2023-12-23T14:47:57.181Z,99395.34
2023-12-23T14:50:24.979Z,99401.72
2023-12-23T14:52:53.018Z,99393.47
2023-12-23T14:55:23.633Z,99404.41
2023-12-23T14:57:51.408Z,99416.13
2023-12-23T15:00:19.651Z,99416.97
2023-12-23T15:02:47.926Z,99420.28
2023-12-23T15:05:16.105Z,99418.44
2023-12-23T15:07:43.868Z,99417.81
2023-12-23T15:10:11.709Z,99417.81
2023-12-23T15:12:40.886Z,99432.25
2023-12-23T15:15:10.431Z,99431.00
2023-12-23T15:17:38.278Z,99449.56
2023-12-23T15:20:07.645Z,99453.47
2023-12-23T15:22:35.327Z,99448.91
2023-12-23T15:25:03.103Z,99456.97
2023-12-23T15:27:32.696Z,99469.56
2023-12-23T15:30:05.257Z,99463.97
2023-12-23T15:32:33.304Z,99458.22
2023-12-23T15:35:01.258Z,99470.59
2023-12-23T15:37:29.191Z,99476.13
2023-12-23T15:39:57.055Z,99468.94
2023-12-23T15:42:25.811Z,99465.81
2023-12-23T15:44:53.815Z,99482.13
2023-12-23T15:47:22.989Z,99476.53
2023-12-23T15:49:50.889Z,99477.97
2023-12-23T15:52:18.929Z,99481.50
2023-12-23T15:54:46.172Z,99489.13
2023-12-23T15:57:13.828Z,99478.19
2023-12-23T15:59:41.624Z,99488.94
2023-12-23T16:02:09.488Z,99493.03
2023-12-23T16:04:38.748Z,99489.94
2023-12-23T16:07:06.540Z,99487.06
2023-12-23T16:09:34.263Z,99486.84
2023-12-23T16:12:01.076Z,99481.72
2023-12-23T16:14:28.831Z,99477.63
2023-12-23T16:16:56.629Z,99478.44
2023-12-23T16:19:24.833Z,99465.88
2023-12-23T16:21:54.030Z,99478.44
2023-12-23T16:24:21.715Z,99477.19
2023-12-23T16:26:52.958Z,99476.38
2023-12-23T16:29:21.175Z,99487.09
2023-12-23T16:31:48.814Z,99476.75
2023-12-23T16:34:16.543Z,99489.97
2023-12-23T16:36:44.699Z,99488.69
2023-12-23T16:39:13.941Z,99501.06
2023-12-23T16:41:41.527Z,99501.91
2023-12-23T16:44:09.530Z,99515.09
2023-12-23T16:46:37.221Z,99510.13
2023-12-23T16:49:05.229Z,99512.19
2023-12-23T16:51:33.063Z,99519.63
2023-12-23T16:54:02.469Z,99530.94
2023-12-23T16:56:31.717Z,99528.69
2023-12-23T16:58:59.528Z,99538.78
2023-12-23T17:01:27.265Z,99528.28
2023-12-23T17:03:55.782Z,99538.56
2023-12-23T17:06:23.517Z,99519.63
2023-12-23T17:08:51.272Z,99534.44
2023-12-23T17:11:20.825Z,99533.47
2023-12-23T17:13:50.059Z,99533.88
2023-12-23T17:16:18.151Z,99540.88
2023-12-23T17:18:45.887Z,99549.09
2023-12-23T17:21:14.729Z,99563.31
2023-12-23T17:23:42.688Z,99546.00
2023-12-23T17:26:10.488Z,99537.94
2023-12-23T17:28:38.221Z,99552.78
2023-12-23T17:31:07.294Z,99558.16
2023-12-23T17:33:35.021Z,99560.41
2023-12-23T17:36:05.312Z,99554.00
2023-12-23T17:38:33.747Z,99557.28
2023-12-23T17:41:01.636Z,99560.19
2023-12-23T17:43:29.355Z,99552.97
2023-12-23T17:45:56.998Z,99556.25
2023-12-23T17:48:28.038Z,99546.75
2023-12-23T17:50:56.205Z,99560.75
2023-12-23T17:53:25.860Z,99562.41
2023-12-23T17:55:53.618Z,99566.75
2023-12-23T17:58:21.231Z,99555.63
2023-12-23T18:00:49.028Z,99557.06
2023-12-23T18:03:18.787Z,99552.91
2023-12-23T18:05:48.189Z,99555.38
2023-12-23T18:08:15.877Z,99555.16
2023-12-23T18:10:43.611Z,99560.31
2023-12-23T18:13:14.489Z,99553.50
2023-12-23T18:15:42.102Z,99543.38
2023-12-23T18:18:10.092Z,99546.50
2023-12-23T18:20:38.118Z,99552.84
2023-12-23T18:23:07.658Z,99551.25
2023-12-23T18:25:35.407Z,99548.16
2023-12-23T18:28:03.688Z,99549.78
2023-12-23T18:30:31.384Z,99548.91
2023-12-23T18:32:59.746Z,99531.00
2023-12-23T18:35:27.735Z,99536.56
2023-12-23T18:37:56.484Z,99545.66
2023-12-23T18:40:25.563Z,99541.53
2023-12-23T18:42:53.727Z,99563.34
2023-12-23T18:45:21.592Z,99557.22
2023-12-23T18:47:49.727Z,99548.91
2023-12-23T18:50:17.462Z,99558.59
2023-12-23T18:52:45.713Z,99557.53
2023-12-23T18:55:13.957Z,99557.97
2023-12-23T18:57:43.110Z,99549.09
2023-12-23T19:00:11.911Z,99542.31
2023-12-23T19:02:39.794Z,99542.56
2023-12-23T19:05:09.493Z,99546.06
2023-12-23T19:07:37.255Z,99553.25
2023-12-23T19:10:05.184Z,99560.63
2023-12-23T19:12:32.928Z,99558.56
2023-12-23T19:15:02.097Z,99567.16
2023-12-23T19:17:29.913Z,99575.59
2023-12-23T19:19:57.609Z,99563.88
2023-12-23T19:22:25.435Z,99563.06
2023-12-23T19:24:53.115Z,99554.66
2023-12-23T19:27:21.355Z,99564.09
2023-12-23T19:29:51.929Z,99554.81
2023-12-23T19:32:22.395Z,99544.59
2023-12-23T19:34:50.233Z,99541.53
2023-12-23T19:37:17.948Z,99549.78
2023-12-23T19:39:55.741Z,99555.13
2023-12-23T19:42:30.675Z,99544.81
2023-12-23T19:44:58.400Z,99549.38
2023-12-23T19:47:27.545Z,99562.56
2023-12-23T19:49:56.174Z,99554.31
2023-12-23T19:52:29.578Z,99546.09
2023-12-23T19:54:58.022Z,99553.28
2023-12-23T19:57:25.921Z,99558.25
2023-12-23T19:59:54.025Z,99543.00
2023-12-23T20:02:21.764Z,99546.50
2023-12-23T20:04:51.118Z,99548.59
2023-12-23T20:07:18.860Z,99544.00
2023-12-23T20:09:46.864Z,99555.31
2023-12-23T20:12:14.687Z,99553.25
2023-12-23T20:14:42.967Z,99557.16
2023-12-23T20:17:10.721Z,99557.75
2023-12-23T20:19:38.650Z,99556.31
2023-12-23T20:22:10.599Z,99562.09
2023-12-23T20:24:39.569Z,99555.94
2023-12-23T20:27:09.172Z,99557.75
2023-12-23T20:29:37.083Z,99567.84
2023-12-23T20:32:05.514Z,99553.19
2023-12-23T20:34:34.072Z,99557.28
2023-12-23T20:37:06.809Z,99541.81
2023-12-23T20:39:35.874Z,99561.94
2023-12-23T20:42:03.798Z,99565.41
2023-12-23T20:44:32.834Z,99565.81
2023-12-23T20:47:04.703Z,99572.63
2023-12-23T20:49:42.229Z,99573.03
2023-12-23T20:52:09.859Z,99577.13
2023-12-23T20:54:45.761Z,99569.34
2023-12-23T20:57:13.571Z,99561.50
2023-12-23T20:59:42.575Z,99562.53
2023-12-23T21:02:19.324Z,99546.91
2023-12-23T21:04:47.145Z,99560.88
2023-12-23T21:07:14.806Z,99556.59
2023-12-23T21:09:46.037Z,99552.09
2023-12-23T21:12:14.083Z,99561.34
2023-12-23T21:14:47.616Z,99558.44
2023-12-23T21:17:15.766Z,99564.19
2023-12-23T21:19:45.709Z,99562.78
2023-12-23T21:22:13.789Z,99577.81
2023-12-23T21:24:43.262Z,99577.16
2023-12-23T21:27:11.401Z,99563.81
2023-12-23T21:29:39.276Z,99574.09
2023-12-23T21:32:08.137Z,99573.84
2023-12-23T21:34:35.858Z,99559.66
2023-12-23T21:37:03.636Z,99575.16
2023-12-23T21:39:31.316Z,99569.59
2023-12-23T21:42:05.870Z,99561.75
2023-12-23T21:44:34.343Z,99568.09
2023-12-23T21:47:02.194Z,99576.41
2023-12-23T21:49:30.016Z,99573.91
2023-12-23T21:52:02.017Z,99573.13
2023-12-23T21:54:33.291Z,99583.88
2023-12-23T21:57:05.351Z,99578.59
2023-12-23T21:59:32.136Z,99587.63
2023-12-23T22:01:59.946Z,99581.25
2023-12-23T22:04:27.851Z,99571.13
2023-12-23T22:06:54.976Z,99585.09
2023-12-23T22:09:23.008Z,99586.25
2023-12-23T22:11:57.349Z,99593.81
2023-12-23T22:14:26.481Z,99588.53
2023-12-23T22:17:37.711Z,99592.84
2023-12-23T22:20:07.909Z,99597.03
2023-12-23T22:22:35.874Z,99593.41
2023-12-23T22:25:14.860Z,99602.09
2023-12-23T22:27:42.702Z,99582.78
2023-12-23T22:30:12.824Z,99585.06
2023-12-23T22:32:40.935Z,99586.50
2023-12-23T22:35:12.296Z,99581.00
2023-12-23T22:37:42.256Z,99593.97
2023-12-23T22:40:10.521Z,99599.72
2023-12-23T22:42:38.273Z,99610.03
2023-12-23T22:45:06.999Z,99604.69
2023-12-23T22:47:38.144Z,99608.81
2023-12-23T22:50:06.406Z,99588.66
2023-12-23T22:52:37.116Z,99584.97
2023-12-23T22:55:05.270Z,99596.09
2023-12-23T22:57:33.227Z,99609.25
2023-12-23T23:00:01.627Z,99616.22
2023-12-23T23:02:29.489Z,99613.72
2023-12-23T23:05:02.155Z,99612.75
2023-12-23T23:07:30.371Z,99591.34
2023-12-23T23:10:00.793Z,99595.25
2023-12-23T23:12:28.566Z,99582.69
2023-12-23T23:14:56.212Z,99584.13
2023-12-23T23:17:23.979Z,99592.38
2023-12-23T23:19:51.870Z,99594.22
2023-12-23T23:22:21.330Z,99599.22
2023-12-23T23:24:49.004Z,99595.66
2023-12-23T23:27:16.843Z,99590.72
2023-12-23T23:29:44.538Z,99587.41
2023-12-23T23:32:15.131Z,99603.28
2023-12-23T23:34:47.590Z,99596.50
2023-12-23T23:37:16.564Z,99598.72
2023-12-23T23:39:45.777Z,99591.91
2023-12-23T23:42:13.418Z,99581.22
2023-12-23T23:44:41.058Z,99571.53
2023-12-23T23:47:12.405Z,99569.28
2023-12-23T23:50:04.927Z,99560.22
2023-12-23T23:53:07.560Z,99552.41
2023-12-23T23:55:37.655Z,99555.91
2023-12-23T23:58:05.739Z,99545.81
